Strona główna
METAR-TAF:

METAR-TAF

Lotnisko :

Port lotniczy Londyn-City

Londyn, Anglia

Szerokość geograficzna: 51-30N, Długość geograficzna: 000-03E, wysokość: 5 m

Aktualna obserwacja pogody

Raport powstał 38 minut temu, godzina 19:50 UTC
Wiatr 10 kt od zachodnio-południowy zachód
Temperatura 3°C
Wilgotność 75%
Ciśnienie 1015 hPa
Widzialność 10 km lub więcej

METAR: EGLC 251950Z AUTO 24010KT 9999 NCD 03/M01 Q1015

czas: 20:28 (20:28 UTC)

Prognoza

Raport powstał 3 godziny i 27 minut temu, godzina 17:01 UTC
Prognoza ważna od 25 godzina 18 UTC do 25 godzina 22 UTC
Wiatr 9 kt od zachód
Widzialność 10 km lub więcej
Mało chmury na wysokości 2500 ft

TAF: EGLC 251701Z 2518/2522 27009KT 9999 FEW025

Obserwacja i prognoza pogody dla ponad 4000 lotnisk (raport METAR i TAF).

Dostępne stacje oznaczono żółtymi i czerwonymi punktami na mapie.

Najedź kursorem aby zobaczyć nazwę stacji.

Kliknij aby zobaczyć obserwacje i prognozy pogody.

Aby zmienić mapę: kliknij na zielony przycisk z czarnym krzyżykiem, aby powiększyć; na zielony przycisk z myślnikiem, aby pomniejszyć; na zielone strzałki, aby przejść do map sąsiednich.


METAR-TAF: